Check time and date!

LGTT 222200Z 00000KT 9999 SCT025 11/07 Q1022 RMK BKN080 BKN180
TAF LGTT 221000Z 2212/2221 22006KT 9999 FEW025 BECMG 2215/2217 FEW020 SCT030
--------------------------------------
LGMG 221600Z 00000KT CAVOK 15/06 Q1020 RMK SCT070 BKN180
TAF LGMG 221000Z 2212/2221 VRB03KT 9999 FEW025 BECMG 2215/2217 FEW020 SCT030 PROB30 TEMPO 2218/2221 5000 RA SCT020 BKN030
--------------------------------------
LGTG 222150Z 00000KT CAVOK 11/06 Q1021 RMK SCT090 BKN180
--------------------------------------
LGEL 222150Z 36004KT 9999 FEW030 SCT070 12/06 Q1021 RMK BKN180
TAF LGEL 221700Z 2218/2318 VRB03KT 9999 FEW025 SCT070 BECMG 2220/2222 08008KT BECMG 2308/2310 19008KT
--------------------------------------
LGAV 222150Z VRB03KT 9999 FEW040 12/06 Q1022 RMK SCT100 BKN180 NOSIG
TAF LGAV 221700Z 2218/2318 VRB05KT 9999 FEW025 SCT070 BECMG 2302/2304 04010KT BECMG 2310/2312 10012KT
--------------------------------------
LGAT 222200Z AUTO VRB01KT //// // ////// 14/04 Q1022 RE//
--------------------------------------
METAR LGAD 222150Z 00000KT 9999 FEW020 12/10 Q1017
METAR LGAV 222150Z VRB03KT 9999 FEW040 12/06 Q1022 NOSIG
METAR LGBL 222150Z 12005KT 9999 FEW030 BKN080 14/07 Q1021
METAR LGEL 222150Z 36004KT 9999 FEW030 SCT070 12/06 Q1021
METAR LGIR 222150Z 16007KT 9999 FEW025 12/07 Q1020 NOSIG
METAR LGKL 222150Z 32005KT 9999 SCT080 11/07 Q1018
METAR LGKO 222150Z /////KT CAVOK 15/06 Q1019
METAR LGKP 222150Z 32008KT 290V040 CAVOK 16/09 Q1019
METAR LGKR 222150Z 21005KT 9999 SCT025 BKN040 OVC080 15/12 Q1016 NOSIG
METAR LGLM 222150Z 00000KT 9999 FEW018 11/07 Q1021
METAR LGLR 222150Z 00000KT 9999 -RA SCT025 OVC080 12/10 Q1021 BLU
METAR LGPA 222150Z AUTO VRB03KT //// // ////// 14/06 Q1021 RE//
METAR LGPZ 222150Z 21004KT 9999 FEW025 15/11 Q1018
METAR LGRP 222150Z 22005KT 9999 FEW020 17/07 Q1019 NOSIG
METAR LGRX 222150Z 06010KT 9999 SCT090 16/07 Q1017 RMK BKN180 BLU
METAR LGSA 222150Z 14004KT 9999 FEW025 13/09 Q1020
METAR LGSO 222150Z AUTO VRB03KT //// // ////// 14/05 Q1021 RE//
METAR LGSR 222150Z 36004KT 9999 FEW025 14/07 Q1021
METAR LGTG 222150Z 00000KT CAVOK 11/06 Q1021 RMK SCT090 BKN180 BLU
METAR LGTS 222150Z 12008KT 9999 SCT025 15/02 Q1020 NOSIG

--------------------------------------
TAF LGAD 222000Z 2221/2306 22010KT 9999 FEW025 BKN080 PROB30 TEMPO 2300/2306 6000 RA SCT020 BKN080 BECMG 2222/2224 13012KT
TAF LGAL 222000Z 2221/2306 06010KT 9999 FEW025 SCT060
TAF LGAV 221700Z 2218/2318 VRB05KT 9999 FEW025 SCT070 BECMG 2302/2304 04010KT BECMG 2310/2312 10012KT
TAF LGBL 222000Z 2221/2306 10012KT 9999 FEW020 BKN080 PROB30 TEMPO 2221/2306 8000 RA SCT020 BKN080
TAF LGEL 221700Z 2218/2318 VRB03KT 9999 FEW025 SCT070 BECMG 2220/2222 08008KT BECMG 2308/2310 19008KT
TAF LGHI 222000Z 2221/2306 01008KT 9999 FEW020
TAF LGIO 222000Z 2221/2306 VRB03KT 9999 SCT030 BKN080 PROB40 TEMPO 2221/2306 6000 SHRA FEW018TCU SCT025 BKN070
TAF LGIR 221700Z 2218/2318 18010KT 9999 FEW020 SCT100 BECMG 2306/2308 08010KT BECMG 2312/2314 18016G26KT
TAF LGKC 222000Z 2221/2306 10015KT 9999 FEW018 SCT030
TAF LGKF 222000Z 2221/2306 13015KT 9999 FEW020 BKN070 PROB30 TEMPO 2300/2306 5000 RA SCT020 BKN040 BECMG 2221/2223 12020G30KT
TAF LGKL 222000Z 2221/2306 35008KT 9999 SCT025 BKN080 PROB30 TEMPO 2300/2306 6000 RA
TAF LGKO 221700Z 2218/2318 35012KT 9999 FEW025 SCT050 BECMG 2221/2223 05010KT BECMG 2308/2310 12010KT
TAF LGKP 222000Z 2221/2306 29015G25KT 9999 FEW025 BECMG 2222/2224 34010KT
TAF LGKR 221700Z 2218/2318 14015KT 9999 SCT020 SCT040 BKN080 TEMPO 2218/2312 5000 RA SCT020 SCT040 BKN080 TEMPO 2218/2312 14015G25KT TEMPO 2312/2318 14020G30KT
TAF LGKV 221700Z 2218/2318 20010KT 9999 FEW025 BECMG 2220/2222 09015KT BECMG 2221/2223 FEW025 BKN080
TAF LGLM 222000Z 2221/2306 03010KT 9999 SCT020 BECMG 2222/2224 07010KT PROB30 TEMPO 2304/2306 8000 RA
TAF LGLR 222000Z 2221/2306 11010KT 9999 FEW025 BKN080 PROB30 TEMPO 2221/2306 8000 RA SCT020 BKN080 BECMG 2300/2302 VRB03KT
TAF LGMK 222000Z 2221/2306 36008KT 9999 FEW025 BECMG 2304/2306 06010KT
TAF LGMT 222000Z 2221/2306 VRB05KT 9999 FEW025
TAF LGPZ 221700Z 2218/2318 17010KT 9999 FEW010 SCT025 BKN080 TEMPO 2218/2312 5000 RA BECMG 2219/2221 10010KT TEMPO 2306/2318 12015G25KT
TAF LGRP 221700Z 2218/2318 29010KT 9999 FEW020 BECMG 2300/2302 10010KT BECMG 2308/2310 16012KT FEW020 BKN050
TAF LGRX 222000Z 2221/2306 07014KT 9999 FEW025 BKN080 PROB30 TEMPO 2300/2306 6000 RA SCT020 BKN080
TAF LGSA 221700Z 2218/2318 11010KT 9999 FEW025 SCT100 TEMPO 2306/2312 12010G22KT BKN100
TAF LGSK 222000Z 2221/2306 13012KT 9999 FEW020 SCT060 BECMG 2222/2224 VRB05KT BECMG 2301/2303 09010KT
TAF LGSM 222000Z 2221/2306 02008KT 9999 FEW020
TAF LGSR 221700Z 2218/2318 36012KT 9999 FEW025 SCT030 BECMG 2302/2304 06010KT BECMG 2308/2310 12015KT
TAF LGST 222000Z 2221/2306 VRB05KT 9999 FEW025 SCT080
TAF LGSY 222000Z 2221/2306 17010KT 9999 SCT020 PROB30 TEMPO 2222/2306 8000 RA SCT020 BECMG 2222/2224 09010KT
TAF LGTG 222000Z 2221/2306 17008KT 9999 FEW025 BKN070 PROB30 TEMPO 2221/2306 8000 RA SCT020 BKN070
TAF LGTL 222000Z 2221/2306 17008KT 9999 SCT025 BKN080
TAF LGTS 221700Z 2218/2318 14012KT 9999 FEW025 BECMG 2218/2220 SCT025 PROB40 TEMPO 2300/2312 7000 RA FEW010 SCT025
TAF LGZA 222000Z 2221/2306 16014KT 9999 FEW020 SCT070 PROB30 TEMPO 2300/2306 5000 RA SCT020 BKN070 TEMPO 2221/2306 15015G25KT